sensor_id;sensor_type;location;lat;lon;timestamp;pressure;altitude;pressure_sealevel;temperature;humidity
41515;BME280;27247;48.020;16.720;2023-08-17T00:02:59;100088.09;;;18.80;100.00
41515;BME280;27247;48.020;16.720;2023-08-17T00:07:10;100069.66;;;18.89;100.00
41515;BME280;27247;48.020;16.720;2023-08-17T00:11:20;100079.84;;;18.93;100.00
41515;BME280;27247;48.020;16.720;2023-08-17T00:15:31;100099.91;;;18.86;100.00
41515;BME280;27247;48.020;16.720;2023-08-17T00:19:42;100103.72;;;18.78;100.00
41515;BME280;27247;48.020;16.720;2023-08-17T00:23:52;100086.47;;;18.72;100.00
41515;BME280;27247;48.020;16.720;2023-08-17T00:28:03;100089.13;;;18.79;100.00
41515;BME280;27247;48.020;16.720;2023-08-17T00:32:13;100088.69;;;18.82;100.00
41515;BME280;27247;48.020;16.720;2023-08-17T00:36:24;100090.06;;;18.91;100.00
41515;BME280;27247;48.020;16.720;2023-08-17T00:40:34;100087.47;;;18.78;100.00
41515;BME280;27247;48.020;16.720;2023-08-17T00:44:45;100083.84;;;18.59;100.00
41515;BME280;27247;48.020;16.720;2023-08-17T00:48:56;100090.09;;;18.60;100.00
41515;BME280;27247;48.020;16.720;2023-08-17T00:53:06;100084.19;;;18.69;100.00
41515;BME280;27247;48.020;16.720;2023-08-17T00:57:23;100085.25;;;18.68;100.00
41515;BME280;27247;48.020;16.720;2023-08-17T01:01:33;100080.06;;;18.67;100.00
41515;BME280;27247;48.020;16.720;2023-08-17T01:05:44;100084.28;;;18.56;100.00
41515;BME280;27247;48.020;16.720;2023-08-17T01:09:54;100097.50;;;18.46;100.00
41515;BME280;27247;48.020;16.720;2023-08-17T01:14:10;100122.34;;;18.36;100.00
41515;BME280;27247;48.020;16.720;2023-08-17T01:18:26;100126.34;;;17.96;100.00
41515;BME280;27247;48.020;16.720;2023-08-17T01:22:41;100133.91;;;17.80;100.00
41515;BME280;27247;48.020;16.720;2023-08-17T01:26:52;100120.66;;;17.72;100.00
41515;BME280;27247;48.020;16.720;2023-08-17T01:31:27;100110.00;;;17.77;100.00
41515;BME280;27247;48.020;16.720;2023-08-17T01:36:20;100124.53;;;17.83;100.00
41515;BME280;27247;48.020;16.720;2023-08-17T01:40:33;100105.88;;;17.75;100.00
41515;BME280;27247;48.020;16.720;2023-08-17T01:44:44;100101.06;;;17.77;100.00
41515;BME280;27247;48.020;16.720;2023-08-17T01:48:54;100098.47;;;17.95;100.00
41515;BME280;27247;48.020;16.720;2023-08-17T01:53:06;100102.31;;;18.12;100.00
41515;BME280;27247;48.020;16.720;2023-08-17T01:57:16;100096.00;;;18.25;100.00
41515;BME280;27247;48.020;16.720;2023-08-17T02:01:26;100101.63;;;18.24;100.00
41515;BME280;27247;48.020;16.720;2023-08-17T02:05:38;100102.06;;;18.45;100.00
41515;BME280;27247;48.020;16.720;2023-08-17T02:09:48;100102.06;;;18.45;100.00
41515;BME280;27247;48.020;16.720;2023-08-17T02:13:58;100096.66;;;18.45;100.00
41515;BME280;27247;48.020;16.720;2023-08-17T02:18:09;100086.78;;;18.58;100.00
41515;BME280;27247;48.020;16.720;2023-08-17T02:22:19;100095.13;;;18.56;100.00
41515;BME280;27247;48.020;16.720;2023-08-17T02:26:30;100099.19;;;18.40;100.00
41515;BME280;27247;48.020;16.720;2023-08-17T02:30:41;100098.59;;;18.38;100.00
41515;BME280;27247;48.020;16.720;2023-08-17T02:34:51;100102.34;;;18.37;100.00
41515;BME280;27247;48.020;16.720;2023-08-17T02:39:01;100089.47;;;18.33;100.00
41515;BME280;27247;48.020;16.720;2023-08-17T02:43:13;100086.38;;;18.29;100.00
41515;BME280;27247;48.020;16.720;2023-08-17T02:47:23;100094.06;;;18.32;100.00
41515;BME280;27247;48.020;16.720;2023-08-17T02:51:34;100095.53;;;18.28;100.00
41515;BME280;27247;48.020;16.720;2023-08-17T02:55:44;100086.59;;;18.28;100.00
41515;BME280;27247;48.020;16.720;2023-08-17T02:59:54;100087.88;;;18.25;100.00
41515;BME280;27247;48.020;16.720;2023-08-17T03:04:05;100085.16;;;18.25;100.00
41515;BME280;27247;48.020;16.720;2023-08-17T03:08:15;100084.28;;;18.31;100.00
41515;BME280;27247;48.020;16.720;2023-08-17T03:12:25;100085.06;;;18.38;100.00
41515;BME280;27247;48.020;16.720;2023-08-17T03:16:36;100085.59;;;18.22;100.00
41515;BME280;27247;48.020;16.720;2023-08-17T03:20:46;100106.84;;;18.18;100.00
41515;BME280;27247;48.020;16.720;2023-08-17T03:24:56;100103.97;;;18.13;100.00
41515;BME280;27247;48.020;16.720;2023-08-17T03:29:07;100101.66;;;18.17;100.00
41515;BME280;27247;48.020;16.720;2023-08-17T03:33:18;100111.66;;;18.16;100.00
41515;BME280;27247;48.020;16.720;2023-08-17T03:37:29;100104.75;;;18.21;100.00
41515;BME280;27247;48.020;16.720;2023-08-17T03:41:39;100103.31;;;18.18;100.00
41515;BME280;27247;48.020;16.720;2023-08-17T03:45:49;100106.97;;;17.99;100.00
41515;BME280;27247;48.020;16.720;2023-08-17T03:50:00;100108.25;;;17.96;100.00
41515;BME280;27247;48.020;16.720;2023-08-17T03:54:12;100112.22;;;17.94;100.00
41515;BME280;27247;48.020;16.720;2023-08-17T03:58:22;100114.13;;;17.86;100.00
41515;BME280;27247;48.020;16.720;2023-08-17T04:02:33;100117.69;;;17.80;100.00
41515;BME280;27247;48.020;16.720;2023-08-17T04:06:43;100110.19;;;17.82;100.00
41515;BME280;27247;48.020;16.720;2023-08-17T04:10:53;100117.22;;;17.90;100.00
41515;BME280;27247;48.020;16.720;2023-08-17T04:15:04;100120.44;;;17.74;100.00
41515;BME280;27247;48.020;16.720;2023-08-17T04:19:15;100117.53;;;17.55;100.00
41515;BME280;27247;48.020;16.720;2023-08-17T04:23:25;100119.38;;;17.68;100.00
41515;BME280;27247;48.020;16.720;2023-08-17T04:27:35;100115.66;;;17.69;100.00
41515;BME280;27247;48.020;16.720;2023-08-17T04:31:46;100113.38;;;17.73;100.00
41515;BME280;27247;48.020;16.720;2023-08-17T04:35:56;100112.72;;;17.64;100.00
41515;BME280;27247;48.020;16.720;2023-08-17T04:40:09;100107.75;;;17.68;100.00
41515;BME280;27247;48.020;16.720;2023-08-17T04:44:20;100109.44;;;17.69;100.00
41515;BME280;27247;48.020;16.720;2023-08-17T04:48:30;100121.88;;;17.76;100.00
41515;BME280;27247;48.020;16.720;2023-08-17T04:52:40;100131.97;;;17.94;100.00
41515;BME280;27247;48.020;16.720;2023-08-17T04:56:51;100139.28;;;17.87;100.00
41515;BME280;27247;48.020;16.720;2023-08-17T05:01:01;100138.28;;;17.81;100.00
41515;BME280;27247;48.020;16.720;2023-08-17T05:05:12;100133.47;;;17.83;100.00
41515;BME280;27247;48.020;16.720;2023-08-17T05:09:23;100139.06;;;17.89;100.00
41515;BME280;27247;48.020;16.720;2023-08-17T05:13:33;100138.03;;;17.90;100.00
41515;BME280;27247;48.020;16.720;2023-08-17T05:17:44;100140.13;;;17.88;100.00
41515;BME280;27247;48.020;16.720;2023-08-17T05:21:54;100140.72;;;17.90;100.00
41515;BME280;27247;48.020;16.720;2023-08-17T05:26:04;100141.50;;;18.03;100.00
41515;BME280;27247;48.020;16.720;2023-08-17T05:30:15;100144.25;;;17.90;100.00
41515;BME280;27247;48.020;16.720;2023-08-17T05:34:25;100145.91;;;17.91;100.00
41515;BME280;27247;48.020;16.720;2023-08-17T05:38:36;100128.22;;;17.95;100.00
41515;BME280;27247;48.020;16.720;2023-08-17T05:42:46;100134.22;;;18.04;100.00
41515;BME280;27247;48.020;16.720;2023-08-17T05:46:57;100137.53;;;18.06;100.00
41515;BME280;27247;48.020;16.720;2023-08-17T05:51:07;100129.19;;;18.07;100.00
41515;BME280;27247;48.020;16.720;2023-08-17T05:55:17;100133.25;;;18.23;100.00
41515;BME280;27247;48.020;16.720;2023-08-17T05:59:28;100140.50;;;18.29;100.00
41515;BME280;27247;48.020;16.720;2023-08-17T06:03:38;100139.34;;;18.43;100.00
41515;BME280;27247;48.020;16.720;2023-08-17T06:07:48;100139.84;;;18.65;100.00
41515;BME280;27247;48.020;16.720;2023-08-17T06:11:59;100145.28;;;18.90;100.00
41515;BME280;27247;48.020;16.720;2023-08-17T06:16:09;100158.84;;;19.08;100.00
41515;BME280;27247;48.020;16.720;2023-08-17T06:20:20;100146.06;;;19.16;100.00
41515;BME280;27247;48.020;16.720;2023-08-17T06:24:31;100149.69;;;19.28;100.00
41515;BME280;27247;48.020;16.720;2023-08-17T06:28:41;100146.03;;;19.40;100.00
41515;BME280;27247;48.020;16.720;2023-08-17T06:32:52;100150.03;;;19.56;100.00
41515;BME280;27247;48.020;16.720;2023-08-17T06:37:03;100149.06;;;19.69;100.00
41515;BME280;27247;48.020;16.720;2023-08-17T06:41:13;100154.09;;;19.84;100.00
41515;BME280;27247;48.020;16.720;2023-08-17T06:45:24;100159.44;;;19.90;100.00
41515;BME280;27247;48.020;16.720;2023-08-17T06:49:35;100162.06;;;19.97;100.00
41515;BME280;27247;48.020;16.720;2023-08-17T06:53:45;100161.06;;;20.09;100.00
41515;BME280;27247;48.020;16.720;2023-08-17T06:57:56;100163.00;;;20.21;100.00
41515;BME280;27247;48.020;16.720;2023-08-17T07:02:07;100162.81;;;20.34;100.00
41515;BME280;27247;48.020;16.720;2023-08-17T07:06:17;100167.25;;;20.47;100.00
41515;BME280;27247;48.020;16.720;2023-08-17T07:10:28;100160.19;;;20.57;100.00
41515;BME280;27247;48.020;16.720;2023-08-17T07:14:38;100168.59;;;20.67;100.00
41515;BME280;27247;48.020;16.720;2023-08-17T07:18:49;100163.91;;;20.86;100.00
41515;BME280;27247;48.020;16.720;2023-08-17T07:22:59;100157.91;;;20.96;100.00
41515;BME280;27247;48.020;16.720;2023-08-17T07:27:10;100159.56;;;21.09;100.00
41515;BME280;27247;48.020;16.720;2023-08-17T07:31:20;100156.59;;;21.22;100.00
41515;BME280;27247;48.020;16.720;2023-08-17T07:35:30;100152.94;;;21.40;100.00
41515;BME280;27247;48.020;16.720;2023-08-17T07:39:41;100151.75;;;21.47;100.00
41515;BME280;27247;48.020;16.720;2023-08-17T07:43:51;100160.84;;;21.53;100.00
41515;BME280;27247;48.020;16.720;2023-08-17T07:48:02;100160.13;;;21.57;100.00
41515;BME280;27247;48.020;16.720;2023-08-17T07:52:12;100160.59;;;21.66;100.00
41515;BME280;27247;48.020;16.720;2023-08-17T07:56:22;100170.50;;;21.72;100.00
41515;BME280;27247;48.020;16.720;2023-08-17T08:00:33;100171.91;;;21.75;100.00
41515;BME280;27247;48.020;16.720;2023-08-17T08:04:43;100173.56;;;21.87;100.00
41515;BME280;27247;48.020;16.720;2023-08-17T08:08:53;100169.63;;;22.07;100.00
41515;BME280;27247;48.020;16.720;2023-08-17T08:13:04;100165.03;;;22.24;100.00
41515;BME280;27247;48.020;16.720;2023-08-17T08:17:15;100161.94;;;22.32;100.00
41515;BME280;27247;48.020;16.720;2023-08-17T08:21:25;100172.38;;;22.23;100.00
41515;BME280;27247;48.020;16.720;2023-08-17T08:25:37;100161.88;;;22.44;100.00
41515;BME280;27247;48.020;16.720;2023-08-17T08:29:48;100160.81;;;22.61;100.00
41515;BME280;27247;48.020;16.720;2023-08-17T08:33:58;100155.03;;;22.75;100.00
41515;BME280;27247;48.020;16.720;2023-08-17T08:38:09;100159.28;;;22.82;100.00
41515;BME280;27247;48.020;16.720;2023-08-17T08:42:21;100154.09;;;23.14;100.00
41515;BME280;27247;48.020;16.720;2023-08-17T08:46:32;100146.88;;;23.25;100.00
41515;BME280;27247;48.020;16.720;2023-08-17T08:50:45;100143.22;;;23.36;100.00
41515;BME280;27247;48.020;16.720;2023-08-17T08:54:57;100149.50;;;23.37;96.25
41515;BME280;27247;48.020;16.720;2023-08-17T08:59:09;100144.97;;;23.64;99.92
41515;BME280;27247;48.020;16.720;2023-08-17T09:03:20;100137.78;;;23.80;96.30
41515;BME280;27247;48.020;16.720;2023-08-17T09:07:32;100140.34;;;23.65;95.96
41515;BME280;27247;48.020;16.720;2023-08-17T09:11:43;100135.50;;;23.72;96.57
41515;BME280;27247;48.020;16.720;2023-08-17T09:15:53;100139.56;;;23.69;97.36
41515;BME280;27247;48.020;16.720;2023-08-17T09:20:04;100129.03;;;24.00;98.31
41515;BME280;27247;48.020;16.720;2023-08-17T09:24:17;100129.72;;;24.39;92.11
41515;BME280;27247;48.020;16.720;2023-08-17T09:28:28;100120.97;;;25.01;92.46
41515;BME280;27247;48.020;16.720;2023-08-17T09:32:38;100115.94;;;25.25;87.42
41515;BME280;27247;48.020;16.720;2023-08-17T09:36:48;100103.38;;;25.34;84.46
41515;BME280;27247;48.020;16.720;2023-08-17T09:40:59;100099.38;;;25.57;84.20
41515;BME280;27247;48.020;16.720;2023-08-17T09:45:10;100097.31;;;25.79;85.58
41515;BME280;27247;48.020;16.720;2023-08-17T09:49:23;100092.09;;;25.77;82.44
41515;BME280;27247;48.020;16.720;2023-08-17T09:53:36;100085.25;;;25.80;83.27
41515;BME280;27247;48.020;16.720;2023-08-17T09:57:50;100088.63;;;26.07;84.37
41515;BME280;27247;48.020;16.720;2023-08-17T10:02:03;100086.16;;;26.06;83.17
41515;BME280;27247;48.020;16.720;2023-08-17T10:06:22;100087.53;;;26.03;84.21
41515;BME280;27247;48.020;16.720;2023-08-17T10:10:36;100089.38;;;25.93;85.76
41515;BME280;27247;48.020;16.720;2023-08-17T10:14:55;100094.72;;;25.52;87.65
41515;BME280;27247;48.020;16.720;2023-08-17T10:19:21;100090.03;;;25.42;86.56
41515;BME280;27247;48.020;16.720;2023-08-17T10:23:34;100091.06;;;25.31;90.80
41515;BME280;27247;48.020;16.720;2023-08-17T10:27:46;100086.59;;;25.15;90.61
41515;BME280;27247;48.020;16.720;2023-08-17T10:32:02;100082.59;;;25.33;89.45
41515;BME280;27247;48.020;16.720;2023-08-17T10:36:13;100076.59;;;25.41;88.81
41515;BME280;27247;48.020;16.720;2023-08-17T10:40:32;100078.28;;;25.52;87.83
41515;BME280;27247;48.020;16.720;2023-08-17T10:44:48;100074.19;;;25.55;92.56
41515;BME280;27247;48.020;16.720;2023-08-17T10:49:02;100071.84;;;25.84;89.69
41515;BME280;27247;48.020;16.720;2023-08-17T10:53:14;100073.28;;;26.17;86.40
41515;BME280;27247;48.020;16.720;2023-08-17T10:57:38;100070.84;;;26.30;83.60
41515;BME280;27247;48.020;16.720;2023-08-17T11:01:51;100065.94;;;26.48;82.96
41515;BME280;27247;48.020;16.720;2023-08-17T11:06:16;100060.94;;;26.95;82.73
41515;BME280;27247;48.020;16.720;2023-08-17T11:10:28;100060.13;;;27.05;79.93
41515;BME280;27247;48.020;16.720;2023-08-17T11:14:39;100057.13;;;26.81;76.79
41515;BME280;27247;48.020;16.720;2023-08-17T11:18:51;100045.88;;;26.98;77.50
41515;BME280;27247;48.020;16.720;2023-08-17T11:23:02;100059.75;;;27.37;75.68
41515;BME280;27247;48.020;16.720;2023-08-17T11:27:14;100059.59;;;27.73;71.59
41515;BME280;27247;48.020;16.720;2023-08-17T11:31:25;100051.59;;;27.81;69.30
41515;BME280;27247;48.020;16.720;2023-08-17T11:35:36;100051.69;;;27.61;73.53
41515;BME280;27247;48.020;16.720;2023-08-17T11:39:46;100050.41;;;27.38;73.50
41515;BME280;27247;48.020;16.720;2023-08-17T11:43:57;100049.38;;;27.24;67.05
41515;BME280;27247;48.020;16.720;2023-08-17T11:48:08;100045.00;;;27.82;67.24
41515;BME280;27247;48.020;16.720;2023-08-17T11:52:19;100042.63;;;28.05;62.60
41515;BME280;27247;48.020;16.720;2023-08-17T11:56:30;100042.84;;;27.74;67.79
41515;BME280;27247;48.020;16.720;2023-08-17T12:00:42;100036.91;;;27.47;67.77
41515;BME280;27247;48.020;16.720;2023-08-17T12:04:55;100039.06;;;27.60;66.39
41515;BME280;27247;48.020;16.720;2023-08-17T12:09:06;100032.38;;;28.25;65.99
41515;BME280;27247;48.020;16.720;2023-08-17T12:13:16;100029.78;;;28.68;63.14
41515;BME280;27247;48.020;16.720;2023-08-17T12:17:26;100027.72;;;28.84;63.76
41515;BME280;27247;48.020;16.720;2023-08-17T12:21:37;100023.38;;;29.02;61.88
41515;BME280;27247;48.020;16.720;2023-08-17T12:25:55;100014.06;;;28.98;62.47
41515;BME280;27247;48.020;16.720;2023-08-17T12:30:12;100009.53;;;28.83;62.29
41515;BME280;27247;48.020;16.720;2023-08-17T12:34:23;100007.53;;;28.65;62.52
41515;BME280;27247;48.020;16.720;2023-08-17T12:38:33;100001.31;;;28.54;62.91
41515;BME280;27247;48.020;16.720;2023-08-17T12:42:44;99993.28;;;28.57;63.36
41515;BME280;27247;48.020;16.720;2023-08-17T12:46:54;99981.69;;;29.13;65.94
41515;BME280;27247;48.020;16.720;2023-08-17T12:51:04;99977.25;;;29.17;63.73
41515;BME280;27247;48.020;16.720;2023-08-17T12:55:15;99971.53;;;29.33;64.09
41515;BME280;27247;48.020;16.720;2023-08-17T12:59:25;99965.91;;;29.43;63.21
41515;BME280;27247;48.020;16.720;2023-08-17T13:03:36;99969.72;;;29.66;61.82
41515;BME280;27247;48.020;16.720;2023-08-17T13:07:46;99963.50;;;29.93;60.35
41515;BME280;27247;48.020;16.720;2023-08-17T13:11:57;99963.50;;;30.58;59.21
41515;BME280;27247;48.020;16.720;2023-08-17T13:16:14;99955.88;;;31.23;57.91
41515;BME280;27247;48.020;16.720;2023-08-17T13:20:25;99961.50;;;31.18;58.23
41515;BME280;27247;48.020;16.720;2023-08-17T13:24:36;99951.78;;;31.70;57.00
41515;BME280;27247;48.020;16.720;2023-08-17T13:28:46;99960.59;;;31.72;58.53
41515;BME280;27247;48.020;16.720;2023-08-17T13:32:57;99941.94;;;31.78;55.86
41515;BME280;27247;48.020;16.720;2023-08-17T13:37:07;99947.88;;;31.35;56.59
41515;BME280;27247;48.020;16.720;2023-08-17T13:41:18;99941.78;;;32.05;56.42
41515;BME280;27247;48.020;16.720;2023-08-17T13:45:28;99934.38;;;31.92;57.71
41515;BME280;27247;48.020;16.720;2023-08-17T13:49:39;99930.25;;;29.70;64.51
41515;BME280;27247;48.020;16.720;2023-08-17T13:53:49;99925.72;;;28.75;65.85
41515;BME280;27247;48.020;16.720;2023-08-17T13:58:00;99925.88;;;28.36;69.42
41515;BME280;27247;48.020;16.720;2023-08-17T14:02:10;99927.53;;;28.85;66.52
41515;BME280;27247;48.020;16.720;2023-08-17T14:06:20;99913.66;;;28.47;66.80
41515;BME280;27247;48.020;16.720;2023-08-17T14:10:32;99919.28;;;28.61;65.92
41515;BME280;27247;48.020;16.720;2023-08-17T14:14:43;99919.03;;;28.81;66.68
41515;BME280;27247;48.020;16.720;2023-08-17T14:18:54;99913.00;;;28.79;65.65
41515;BME280;27247;48.020;16.720;2023-08-17T14:23:04;99908.81;;;28.87;63.32
41515;BME280;27247;48.020;16.720;2023-08-17T14:27:15;99906.50;;;28.94;65.73
41515;BME280;27247;48.020;16.720;2023-08-17T14:31:25;99913.53;;;29.05;65.63
41515;BME280;27247;48.020;16.720;2023-08-17T14:35:35;99915.97;;;29.49;65.16
41515;BME280;27247;48.020;16.720;2023-08-17T14:39:46;99916.34;;;29.43;62.94
41515;BME280;27247;48.020;16.720;2023-08-17T14:43:58;99915.44;;;29.29;62.13
41515;BME280;27247;48.020;16.720;2023-08-17T14:48:09;99914.84;;;28.89;62.81
41515;BME280;27247;48.020;16.720;2023-08-17T14:52:19;99915.75;;;29.46;61.49
41515;BME280;27247;48.020;16.720;2023-08-17T14:56:30;99914.22;;;29.35;59.45
41515;BME280;27247;48.020;16.720;2023-08-17T15:00:41;99910.06;;;29.37;59.68
41515;BME280;27247;48.020;16.720;2023-08-17T15:04:52;99906.03;;;29.30;60.37
41515;BME280;27247;48.020;16.720;2023-08-17T15:09:02;99900.41;;;29.59;60.61
41515;BME280;27247;48.020;16.720;2023-08-17T15:13:14;99893.53;;;29.75;59.99
41515;BME280;27247;48.020;16.720;2023-08-17T15:17:25;99890.16;;;29.78;60.25
41515;BME280;27247;48.020;16.720;2023-08-17T15:21:35;99878.47;;;30.18;59.64
41515;BME280;27247;48.020;16.720;2023-08-17T15:25:45;99871.53;;;30.21;64.04
41515;BME280;27247;48.020;16.720;2023-08-17T15:29:56;99870.22;;;30.00;64.58
41515;BME280;27247;48.020;16.720;2023-08-17T15:34:06;99868.53;;;29.52;65.03
41515;BME280;27247;48.020;16.720;2023-08-17T15:38:17;99866.78;;;29.43;66.28
41515;BME280;27247;48.020;16.720;2023-08-17T15:42:27;99863.78;;;29.39;66.37
41515;BME280;27247;48.020;16.720;2023-08-17T15:46:37;99869.28;;;29.20;66.93
41515;BME280;27247;48.020;16.720;2023-08-17T15:50:48;99867.84;;;29.04;68.47
41515;BME280;27247;48.020;16.720;2023-08-17T15:54:58;99867.44;;;28.49;67.84
41515;BME280;27247;48.020;16.720;2023-08-17T15:59:09;99862.28;;;28.43;69.13
41515;BME280;27247;48.020;16.720;2023-08-17T16:03:19;99873.22;;;28.24;69.57
41515;BME280;27247;48.020;16.720;2023-08-17T16:07:30;99872.00;;;28.35;68.97
41515;BME280;27247;48.020;16.720;2023-08-17T16:11:40;99881.59;;;28.38;71.46
41515;BME280;27247;48.020;16.720;2023-08-17T16:15:50;99881.38;;;27.71;72.51
41515;BME280;27247;48.020;16.720;2023-08-17T16:20:01;99872.94;;;27.57;73.06
41515;BME280;27247;48.020;16.720;2023-08-17T16:24:11;99872.28;;;27.37;73.57
41515;BME280;27247;48.020;16.720;2023-08-17T16:28:21;99877.63;;;27.18;73.32
41515;BME280;27247;48.020;16.720;2023-08-17T16:32:32;99873.44;;;27.25;72.02
41515;BME280;27247;48.020;16.720;2023-08-17T16:36:42;99887.59;;;27.43;72.11
41515;BME280;27247;48.020;16.720;2023-08-17T16:40:53;99877.66;;;27.52;72.42
41515;BME280;27247;48.020;16.720;2023-08-17T16:45:04;99880.41;;;27.52;72.54
41515;BME280;27247;48.020;16.720;2023-08-17T16:49:14;99872.94;;;27.62;73.74
41515;BME280;27247;48.020;16.720;2023-08-17T16:53:25;99882.34;;;27.07;77.13
41515;BME280;27247;48.020;16.720;2023-08-17T16:57:35;99883.63;;;26.60;79.90
41515;BME280;27247;48.020;16.720;2023-08-17T17:01:46;99877.13;;;26.26;82.17
41515;BME280;27247;48.020;16.720;2023-08-17T17:05:56;99870.84;;;25.95;83.54
41515;BME280;27247;48.020;16.720;2023-08-17T17:10:07;99870.31;;;25.72;86.90
41515;BME280;27247;48.020;16.720;2023-08-17T17:14:18;99868.66;;;25.61;88.93
41515;BME280;27247;48.020;16.720;2023-08-17T17:18:29;99866.19;;;25.60;90.05
41515;BME280;27247;48.020;16.720;2023-08-17T17:22:40;99870.56;;;25.45;88.51
41515;BME280;27247;48.020;16.720;2023-08-17T17:26:50;99872.47;;;25.30;87.81
41515;BME280;27247;48.020;16.720;2023-08-17T17:31:04;99869.72;;;25.35;88.22
41515;BME280;27247;48.020;16.720;2023-08-17T17:35:15;99877.66;;;25.36;89.24
41515;BME280;27247;48.020;16.720;2023-08-17T17:39:26;99874.94;;;25.52;89.28
41515;BME280;27247;48.020;16.720;2023-08-17T17:43:37;99880.97;;;25.59;88.50
41515;BME280;27247;48.020;16.720;2023-08-17T17:47:47;99875.22;;;25.55;87.39
41515;BME280;27247;48.020;16.720;2023-08-17T17:51:58;99884.50;;;25.44;89.36
41515;BME280;27247;48.020;16.720;2023-08-17T17:56:11;99895.72;;;25.32;89.31
41515;BME280;27247;48.020;16.720;2023-08-17T18:00:23;99900.59;;;25.10;87.85
41515;BME280;27247;48.020;16.720;2023-08-17T18:04:33;99908.78;;;25.05;86.23
41515;BME280;27247;48.020;16.720;2023-08-17T18:08:44;99914.22;;;25.00;85.64
41515;BME280;27247;48.020;16.720;2023-08-17T18:12:55;99919.63;;;24.95;84.89
41515;BME280;27247;48.020;16.720;2023-08-17T18:17:06;99925.06;;;24.84;85.28
41515;BME280;27247;48.020;16.720;2023-08-17T18:21:17;99930.78;;;24.83;84.45
41515;BME280;27247;48.020;16.720;2023-08-17T18:25:30;99942.38;;;24.48;85.09
41515;BME280;27247;48.020;16.720;2023-08-17T18:29:42;99946.56;;;24.24;84.23
41515;BME280;27247;48.020;16.720;2023-08-17T18:33:52;99957.66;;;24.12;84.63
41515;BME280;27247;48.020;16.720;2023-08-17T18:38:03;99961.66;;;23.99;85.71
41515;BME280;27247;48.020;16.720;2023-08-17T18:42:14;99964.00;;;23.91;86.64
41515;BME280;27247;48.020;16.720;2023-08-17T18:46:25;99960.53;;;23.95;86.34
41515;BME280;27247;48.020;16.720;2023-08-17T18:50:35;99970.56;;;23.89;86.38
41515;BME280;27247;48.020;16.720;2023-08-17T18:55:02;99969.28;;;23.97;86.12
41515;BME280;27247;48.020;16.720;2023-08-17T18:59:17;99971.38;;;23.90;86.94
41515;BME280;27247;48.020;16.720;2023-08-17T19:03:28;99980.09;;;23.87;86.33
41515;BME280;27247;48.020;16.720;2023-08-17T19:07:40;99985.56;;;23.87;86.35
41515;BME280;27247;48.020;16.720;2023-08-17T19:11:51;99991.78;;;23.82;86.41
41515;BME280;27247;48.020;16.720;2023-08-17T19:16:02;99987.97;;;23.83;86.21
41515;BME280;27247;48.020;16.720;2023-08-17T19:20:17;99984.97;;;23.85;86.13
41515;BME280;27247;48.020;16.720;2023-08-17T19:24:28;99984.38;;;23.78;89.55
41515;BME280;27247;48.020;16.720;2023-08-17T19:28:39;99980.03;;;23.82;86.71
41515;BME280;27247;48.020;16.720;2023-08-17T19:32:56;99982.53;;;23.56;87.89
41515;BME280;27247;48.020;16.720;2023-08-17T19:37:07;99979.03;;;23.39;89.72
41515;BME280;27247;48.020;16.720;2023-08-17T19:41:18;99981.97;;;23.33;90.76
41515;BME280;27247;48.020;16.720;2023-08-17T19:45:29;99980.25;;;23.27;91.39
41515;BME280;27247;48.020;16.720;2023-08-17T19:49:40;99981.28;;;23.20;92.15
41515;BME280;27247;48.020;16.720;2023-08-17T19:53:51;99976.72;;;23.26;92.37
41515;BME280;27247;48.020;16.720;2023-08-17T19:58:03;99974.09;;;23.36;92.50
41515;BME280;27247;48.020;16.720;2023-08-17T20:02:14;99972.84;;;23.22;93.31
41515;BME280;27247;48.020;16.720;2023-08-17T20:06:24;99970.13;;;23.00;97.17
41515;BME280;27247;48.020;16.720;2023-08-17T20:10:35;99970.25;;;22.72;98.82
41515;BME280;27247;48.020;16.720;2023-08-17T20:14:46;99971.06;;;22.72;98.19
41515;BME280;27247;48.020;16.720;2023-08-17T20:18:57;99975.81;;;22.60;99.19
41515;BME280;27247;48.020;16.720;2023-08-17T20:23:07;99980.13;;;22.56;100.00
41515;BME280;27247;48.020;16.720;2023-08-17T20:27:18;99971.53;;;22.47;100.00
41515;BME280;27247;48.020;16.720;2023-08-17T20:31:29;99977.09;;;22.36;100.00
41515;BME280;27247;48.020;16.720;2023-08-17T20:35:40;99975.38;;;22.13;100.00
41515;BME280;27247;48.020;16.720;2023-08-17T20:39:51;99973.41;;;22.08;100.00
41515;BME280;27247;48.020;16.720;2023-08-17T20:44:02;99964.66;;;22.06;100.00
41515;BME280;27247;48.020;16.720;2023-08-17T20:48:13;99970.50;;;22.15;100.00
41515;BME280;27247;48.020;16.720;2023-08-17T20:52:23;99977.19;;;22.24;100.00
41515;BME280;27247;48.020;16.720;2023-08-17T20:56:34;99984.38;;;22.13;100.00
41515;BME280;27247;48.020;16.720;2023-08-17T21:00:45;99981.97;;;22.17;100.00
41515;BME280;27247;48.020;16.720;2023-08-17T21:04:55;99988.97;;;22.29;100.00
41515;BME280;27247;48.020;16.720;2023-08-17T21:09:08;99990.13;;;22.17;100.00
41515;BME280;27247;48.020;16.720;2023-08-17T21:13:19;99998.63;;;22.04;100.00
41515;BME280;27247;48.020;16.720;2023-08-17T21:17:30;100000.00;;;21.89;100.00
41515;BME280;27247;48.020;16.720;2023-08-17T21:21:40;100002.84;;;21.83;100.00
41515;BME280;27247;48.020;16.720;2023-08-17T21:25:51;100004.59;;;21.89;100.00
41515;BME280;27247;48.020;16.720;2023-08-17T21:30:02;100003.25;;;21.75;100.00
41515;BME280;27247;48.020;16.720;2023-08-17T21:34:13;99997.63;;;21.64;100.00
41515;BME280;27247;48.020;16.720;2023-08-17T21:38:26;99996.34;;;21.55;100.00